• Join FlightAware (Why Join?)
  • Login
  • US Flag 
09:15AM EDT


 

Airport Tracker/Info


-or-


 

Live Flight TrackerFlight Track Log ✈ N789EX ✈ 12-Nov-2013 ✈ KBFI - KMWH

Flight Track Log - Related Links

Times and Time Zones

All times are in EST time to prevent confusion due to time zone crossing. See the N789EX flight status page for this flight to view local times or setup timezone preferences in your user account.

Time Position Orientation Groundspeed Altitude Reporting Facility
EST Latitude Longitude Course Direction KTS MPH feet Rate Location/Type
12:22PM 47.4680 -122.2410 143° Southeast 237 273 2,300  Level FlightAware
12:23PM 47.4370 -122.2020 140° Southeast 255 293 4,000 2,520 Climbing FlightAware
12:23PM 47.4320 -122.1740 105° East 284 327 4,500 1,980 Climbing FlightAware
12:24PM 47.4680 -122.1150 48° Northeast 293 337 6,000 2,100 Climbing FlightAware
12:24PM 47.5040 -122.1270 347° North 288 331 7,000 2,400 Climbing FlightAware
12:25PM 47.5630 -122.1540 343° North 297 342 9,100 2,580 Climbing FlightAware
12:25PM 47.5880 -122.1650 343° North 302 348 9,900 2,280 Climbing FlightAware
12:26PM 47.6770 -122.1930 348° North 319 367 12,300 1,920 Climbing FlightAware
12:27PM 47.7660 -122.2200 348° North 355 409 13,900 1,440 Climbing FlightAware
12:28PM 47.8070 -122.2340 347° North 377 434 14,300 1,380 Climbing FlightAware
12:28PM 47.8630 -122.2520 348° North 397 457 15,200 2,820 Climbing FlightAware
12:29PM 47.9160 -122.2660 350° North 377 434 17,300 3,000 Climbing FlightAware
12:29PM 47.9850 -122.2360 16° North 402 463 18,600 1,920 Climbing FlightAware
12:30PM 48.0240 -122.2050 28° Northeast 408 470 19,300 1,680 Climbing FlightAware
12:30PM 48.0840 -122.1520 31° Northeast 427 491 20,300 1,500 Climbing FlightAware
12:31PM 48.1230 -122.0490 60° Northeast 426 490 21,200 1,560 Climbing FlightAware
12:31PM 48.1230 -121.9930 90° East 401 461 21,900 720 Climbing FlightAware
12:32PM 48.1170 -121.8670 94° East 440 506 22,000 60 Climbing FlightAware
12:32PM 48.1130 -121.7770 94° East 467 537 22,000  Level FlightAware
12:33PM 48.1030 -121.5710 94° East 519 597 22,000  Level FlightAware
12:34PM 48.0920 -121.3660 95° East 533 613 22,000  Level FlightAware
12:35PM 48.0870 -121.2570 94° East 532 612 22,000  Level FlightAware
12:36PM 48.0730 -121.0240 95° East 502 578 22,000  Level FlightAware
12:36PM 48.0690 -120.9260 93° East 469 540 22,000  Level FlightAware
12:37PM 48.0620 -120.7980 95° East 426 490 22,000  Level FlightAware
12:38PM 48.0580 -120.7290 95° East 411 473 22,000  Level FlightAware
12:38PM 48.0520 -120.6270 95° East 412 474 22,000  Level FlightAware
12:39PM 48.0480 -120.5580 95° East 408 470 22,000  Level FlightAware
12:40PM 48.0370 -120.3710 95° East 425 489 22,000 60 Level FlightAware
12:40PM 48.0330 -120.3150 96° East 427 491 22,100 1,200 Climbing FlightAware
12:40PM 48.0280 -120.2260 95° East 428 493 23,000 1,260 Climbing FlightAware
12:41PM 48.0160 -120.0350 95° East 451 519 24,100 1,140 Climbing FlightAware
12:42PM 48.0050 -119.8650 95° East 466 536 25,300 1,860 Climbing FlightAware
12:43PM 47.9940 -119.6870 95° East 448 516 27,600 2,040 Climbing FlightAware
12:44PM 47.9880 -119.6070 96° East 447 514 28,200 1,320 Climbing FlightAware
12:44PM 47.9820 -119.5240 96° East 449 517 28,800 1,140 Climbing FlightAware
12:45PM 47.9700 -119.3390 95° East 453 521 29,900 600 Climbing FlightAware
12:46PM 47.9560 -119.1480 96° East 481 554 30,000  Climbing FlightAware
12:47PM 47.9440 -118.9830 96° East 495 570 30,000  Level FlightAware
12:48PM 47.9370 -118.8760 96° East 495 570 30,000  Level FlightAware
12:48PM 47.9290 -118.7720 97° East 495 570 30,000  Level FlightAware
12:49PM 47.9190 -118.6310 96° East 495 570 30,000  Level FlightAware
12:50PM 47.9070 -118.4580 96° East 495 570 30,000  Level FlightAware
12:51PM 47.9000 -118.3540 96° East 495 570 30,000  Level FlightAware
12:51PM 47.8950 -118.2810 96° East 495 570 30,000  Level FlightAware
12:52PM 47.8870 -118.1750 96° East 495 570 30,000  Level FlightAware
12:53PM 47.8750 -118.0070 96° East 495 570 30,000  Level FlightAware
12:53PM 47.8700 -117.9380 96° East 495 570 30,000  Level FlightAware
12:54PM 47.8560 -117.7300 96° East 495 570 30,000  Level FlightAware
12:55PM 47.8510 -117.6610 96° East 495 570 30,000  Level FlightAware
12:55PM 47.8430 -117.5510 96° East 495 570 30,000  Level FlightAware
12:56PM 47.8360 -117.4470 96° East 495 570 30,000  Level FlightAware
12:56PM 47.8280 -117.3440 97° East 495 570 30,000  Level FlightAware
12:57PM 47.8240 -117.2740 95° East 495 570 30,000  Level FlightAware
12:58PM 47.7825 -116.7569 95° East 494 568 30,000  Level Seattle Center
12:59PM 47.7578 -116.5553 100° East 494 568 30,000 -60 Level Seattle Center
01:00PM 47.7311 -116.3589 101° East 488 562 29,900 -60 Descending Seattle Center
01:01PM 47.7064 -116.1628 101° East 485 558 29,900  Level Seattle Center
01:02PM 47.7139 -115.9686 87° East 501 577 29,900  Level Seattle Center
01:03PM 47.8378 -115.9686 360° North 504 580 29,900  Level Seattle Center
01:04PM 47.8619 -116.1567 281° West 471 542 30,000  Climbing Seattle Center
01:05PM 47.8753 -116.3533 276° West 476 548 29,900 -120 Descending Seattle Center
01:06PM 47.8847 -116.5517 274° West 483 556 29,800  Descending Seattle Center
01:07PM 47.8933 -116.7858 273° West 478 550 29,900 60 Climbing Seattle Center
01:08PM 47.8994 -116.9794 273° West 476 548 30,000  Climbing Seattle Center
01:09PM 47.9100 -117.1728 275° West 475 547 29,900 -120 Descending Seattle Center
01:10PM 47.9222 -117.3658 275° West 476 548 29,800 60 Descending Seattle Center
01:11PM 47.9242 -117.5567 271° West 468 539 30,100 180 Climbing Seattle Center
01:12PM 47.9275 -117.7522 272° West 472 543 30,200  Climbing Seattle Center
01:13PM 47.9306 -117.9456 271° West 470 541 30,200 -240 Level Seattle Center
01:14PM 47.9361 -118.1381 273° West 468 539 29,800 180 Descending Seattle Center
01:15PM 47.9408 -118.3325 272° West 471 542 30,600 60 Climbing Seattle Center
01:16PM 47.9394 -118.5625 270° West 466 536 30,000 -300 Descending Seattle Center
01:17PM 47.9336 -118.7542 267° West 464 534 30,000 -60 Level Seattle Center
01:18PM 48.0114 -118.9117 306° West 513 590 29,900  Descending Seattle Center
01:24PM 47.7950 -118.8280 306° West 450 518 30,000  Climbing FlightAware
01:25PM 47.7070 -118.9080 211° Southwest 452 520 29,900  Descending FlightAware
01:25PM 47.6410 -118.9680 211° Southwest 453 521 30,000 180 Climbing FlightAware
01:26PM 47.5370 -119.0630 212° Southwest 462 532 30,200 120 Climbing FlightAware
01:27PM 47.4760 -119.1180 211° Southwest 460 529 30,200  Level FlightAware
01:28PM 47.4070 -119.1770 210° Southwest 454 522 30,200 -120 Level FlightAware
01:28PM 47.3510 -119.2290 212° Southwest 457 526 30,100 -180 Descending FlightAware
01:29PM 47.2620 -119.3270 217° Southwest 459 528 30,000 -120 Descending FlightAware
01:30PM 47.2190 -119.3860 223° Southwest 460 529 30,000  Level FlightAware
01:30PM 47.1560 -119.4550 217° Southwest 459 528 30,000  Level FlightAware
01:31PM 47.0850 -119.5050 206° Southwest 461 531 30,000  Level FlightAware
01:31PM 47.0120 -119.4990 177° South 473 544 30,000  Level FlightAware
01:32PM 46.8930 -119.4690 170° South 477 549 30,000 60 Level FlightAware
01:33PM 46.8140 -119.4450 168° South 480 552 30,100  Climbing FlightAware
01:33PM 46.7560 -119.3830 144° Southeast 516 594 30,000 -60 Descending FlightAware
01:35PM 46.6710 -119.1720 120° Southeast 523 602 30,000  Level FlightAware
01:35PM 46.6270 -119.0760 124° Southeast 521 600 30,100 60 Climbing FlightAware
01:36PM 46.5790 -118.9800 126° Southeast 521 600 30,100 60 Level FlightAware
01:36PM 46.5390 -118.8690 118° Southeast 529 609 30,200  Climbing FlightAware
01:37PM 46.4810 -118.6980 116° Southeast 521 600 30,100 180 Descending FlightAware
01:38PM 46.4500 -118.6100 117° Southeast 521 600 30,500 -240 Climbing FlightAware
01:39PM 46.3810 -118.4130 117° Southeast 529 609 29,800 -720 Descending FlightAware
01:39PM 46.3460 -118.3160 118° Southeast 527 606 29,400 -600 Descending FlightAware
01:40PM 46.3110 -118.2220 118° Southeast 527 606 29,200 480 Descending FlightAware
01:41PM 46.2490 -118.0490 117° Southeast 507 583 30,100 540 Climbing FlightAware
01:41PM 46.2130 -117.9510 118° Southeast 494 568 30,000 -120 Descending FlightAware
01:42PM 46.1740 -117.8450 118° Southeast 474 545 30,000 -1,560 Level FlightAware
01:42PM 46.1630 -117.7830 104° East 473 544 28,500 -4,920 Descending FlightAware
01:43PM 46.1930 -117.6680 69° East 489 563 25,100 -4,500 Descending FlightAware
01:43PM 46.2290 -117.6370 31° Northeast 467 537 24,200 -3,660 Descending FlightAware
01:44PM 46.3240 -117.6780 343° North 404 465 20,600 -2,280 Descending FlightAware
01:45PM 46.3870 -117.7950 308° West 386 444 20,000 -1,260 Descending FlightAware
01:46PM 46.4260 -117.8730 306° West 390 449 18,700 -960 Descending FlightAware
01:46PM 46.4740 -117.9690 306° West 388 447 18,600 -120 Descending FlightAware
01:47PM 46.4960 -118.0120 307° West 388 447 18,600  Level FlightAware
01:47PM 46.5280 -118.0770 306° West 388 447 18,600  Level FlightAware
01:48PM 46.5600 -118.1410 306° West 388 447 18,600  Level FlightAware
01:49PM 46.5940 -118.2080 306° West 388 447 18,600  Level FlightAware
01:49PM 46.6270 -118.2740 306° West 388 447 18,600  Level FlightAware
01:50PM 46.6380 -118.2960 306° West 388 447 18,600 -4,860 Level FlightAware
01:51PM 46.7342 -118.4983 306° West 354 407 10,800 -3,720 Descending Seattle Center
01:52PM 46.7781 -118.6083 300° West 308 354 9,600 -1,800 Descending Seattle Center
01:53PM 46.8158 -118.6967 302° West 262 302 7,200 -2,100 Descending Seattle Center
01:54PM 46.8628 -118.7922 306° West 237 273 5,400 -1,620 Descending Seattle Center
01:55PM 46.8978 -118.8672 304° West 226 260 4,000 -720 Descending Seattle Center
01:56PM 46.9306 -118.9489 300° West 233 268 4,000  Level Seattle Center
01:57PM 46.9667 -119.0364 301° West 249 287 4,000 -300 Level Seattle Center
01:58PM 47.0011 -119.1222 300° West 245 282 3,400 -540 Descending Seattle Center
01:59PM 47.0358 -119.2050 302° West 226 260 3,000 -180 Descending Seattle Center
02:00PM 47.0808 -119.2592 321° Northwest 211 243 3,100 -420 Climbing Seattle Center
02:01PM 47.1378 -119.2850 343° North 194 223 2,200 -900 Descending Seattle Center
02:02PM 47.1847 -119.3072 342° North 181 208 1,300 -600 Descending Seattle Center
02:03PM 47.2222 -119.3239 343° North 172 198 1,100 -240 Descending Seattle Center
02:05PM 47.2086 -119.3191 341° North  Level Estimated